首页
METAR-TAF:

METAR-TAF

机场 :

阿讷西, 法国

纬度: 45-55-45N, 经度: 006-05-56E, 海拔: 463米

当前天气观测

该预报发布于19分钟前的01:30 UTC
风速3节,风向东转东北
温度 9°C
湿度 93%
气压 1018 hPa
能见度10公里或以上
1500米以下无云,无积雨云

METAR: LFLP 170130Z AUTO 06003KT CAVOK 09/08 Q1018

时间: 03:49 (01:49 UTC)

预报

该预报发布于11小时和49分钟前的14:00 UTC
预报有效从16日的 15点(UTC)到 17日的 15点(UTC)
风速5节,风向西转西南
能见度10公里或以上
1500米以下无云,无积雨云

TAF: LFLP 161400Z 1615/1715 24005KT CAVOK

超过4000个机场的气象观测和天气预报(METAR&TAF报告)。

可查询的气象台以黄色和红色小点在地图上表示。

将鼠标移到小点上方,可查看气象台名称。

然后点击查看天气观测和预报。

如需切换地图:点击带黑十字的绿色按钮放大地图;点击带横线的绿色按钮缩小地图;或者点击绿色箭头查看邻近地区的地图。


METAR-TAF: